createdAt,value
2022-11-29T00:01:36.635Z,19.00
2022-11-29T00:04:04.668Z,20.60
2022-11-29T00:06:34.197Z,18.42
2022-11-29T00:09:08.060Z,19.15
2022-11-29T00:11:56.622Z,19.13
2022-11-29T00:14:25.597Z,24.77
2022-11-29T00:16:56.512Z,22.60
2022-11-29T00:19:23.943Z,22.23
2022-11-29T00:21:51.495Z,19.58
2022-11-29T00:24:18.953Z,19.33
2022-11-29T00:26:46.539Z,18.48
2022-11-29T00:29:14.266Z,14.67
2022-11-29T00:31:43.104Z,14.25
2022-11-29T00:34:13.227Z,15.45
2022-11-29T00:36:40.949Z,15.80
2022-11-29T00:39:12.019Z,15.20
2022-11-29T00:41:40.426Z,13.30
2022-11-29T00:44:07.920Z,13.48
2022-11-29T00:46:35.536Z,15.48
2022-11-29T00:49:03.256Z,13.65
2022-11-29T00:51:30.620Z,15.52
2022-11-29T00:53:57.954Z,12.57
2022-11-29T00:56:25.390Z,12.35
2022-11-29T00:58:52.825Z,15.00
2022-11-29T01:01:20.362Z,13.88
2022-11-29T01:03:48.268Z,13.30
2022-11-29T01:06:17.953Z,12.87
2022-11-29T01:08:46.347Z,12.95
2022-11-29T01:11:20.782Z,16.50
2022-11-29T01:13:48.951Z,14.32
2022-11-29T01:16:17.430Z,15.07
2022-11-29T01:18:45.469Z,14.30
2022-11-29T01:21:18.402Z,14.13
2022-11-29T01:23:47.449Z,18.08
2022-11-29T01:26:20.233Z,15.18
2022-11-29T01:28:50.149Z,15.10
2022-11-29T01:31:20.649Z,18.47
2022-11-29T01:33:48.146Z,13.93
2022-11-29T01:36:15.931Z,16.20
2022-11-29T01:38:43.551Z,15.10
2022-11-29T01:41:17.613Z,14.23
2022-11-29T01:44:05.953Z,14.13
2022-11-29T01:46:40.094Z,14.00
2022-11-29T01:49:16.459Z,12.73
2022-11-29T01:51:50.137Z,15.52
2022-11-29T01:54:19.647Z,12.45
2022-11-29T01:56:49.889Z,12.77
2022-11-29T01:59:20.677Z,14.13
2022-11-29T02:01:48.389Z,16.85
2022-11-29T02:04:17.851Z,12.68
2022-11-29T02:06:46.340Z,14.75
2022-11-29T02:09:22.305Z,12.63
2022-11-29T02:11:58.758Z,12.32
2022-11-29T02:14:37.871Z,11.10
2022-11-29T02:17:53.276Z,10.90
2022-11-29T02:20:34.841Z,11.43
2022-11-29T02:23:20.758Z,13.30
2022-11-29T02:25:58.145Z,11.57
2022-11-29T02:29:06.748Z,15.80
2022-11-29T02:32:12.589Z,13.73
2022-11-29T02:34:59.736Z,12.30
2022-11-29T02:37:51.217Z,12.07
2022-11-29T02:40:27.234Z,11.35
2022-11-29T02:43:15.739Z,12.20
2022-11-29T02:46:09.087Z,12.15
2022-11-29T02:48:56.025Z,11.43
2022-11-29T02:51:28.658Z,12.97
2022-11-29T02:54:05.076Z,11.10
2022-11-29T02:56:43.375Z,13.43
2022-11-29T02:59:32.572Z,12.65
2022-11-29T03:02:28.027Z,12.75
2022-11-29T03:05:17.447Z,11.90
2022-11-29T03:08:03.349Z,12.95
2022-11-29T03:10:52.163Z,12.75
2022-11-29T03:13:47.331Z,13.32
2022-11-29T03:16:52.154Z,14.32
2022-11-29T03:19:31.893Z,16.93
2022-11-29T03:22:12.352Z,13.55
2022-11-29T03:25:02.258Z,11.88
2022-11-29T03:27:37.696Z,12.15
2022-11-29T03:30:09.881Z,12.18
2022-11-29T03:32:51.130Z,11.80
2022-11-29T03:35:28.122Z,14.15
2022-11-29T03:38:04.606Z,12.50
2022-11-29T03:40:57.699Z,11.98
2022-11-29T03:43:39.892Z,11.60
2022-11-29T03:46:42.568Z,10.20
2022-11-29T03:49:20.227Z,12.90
2022-11-29T03:51:48.325Z,12.10
2022-11-29T03:54:22.782Z,15.00
2022-11-29T03:56:50.519Z,15.73
2022-11-29T03:59:39.543Z,15.33
2022-11-29T04:02:40.041Z,13.13
2022-11-29T04:05:22.950Z,14.15
2022-11-29T04:08:10.945Z,12.57
2022-11-29T04:11:05.318Z,13.80
2022-11-29T04:13:55.392Z,11.33
2022-11-29T04:16:28.612Z,13.25
2022-11-29T04:19:21.983Z,13.00
2022-11-29T04:22:34.159Z,10.65
2022-11-29T04:25:17.035Z,11.52
2022-11-29T04:28:13.700Z,10.60
2022-11-29T04:30:43.838Z,10.77
2022-11-29T04:33:16.990Z,11.65
2022-11-29T04:36:15.872Z,10.07
2022-11-29T04:39:12.514Z,12.57
2022-11-29T04:41:58.092Z,9.63
2022-11-29T04:44:39.018Z,13.80
2022-11-29T04:47:21.062Z,12.70
2022-11-29T04:50:16.554Z,11.70
2022-11-29T04:52:53.219Z,12.93
2022-11-29T04:55:45.718Z,21.42
2022-11-29T04:58:19.410Z,20.47
2022-11-29T05:01:05.410Z,20.15
2022-11-29T05:03:57.728Z,24.55
2022-11-29T05:06:27.763Z,25.02
2022-11-29T05:08:58.213Z,25.98
2022-11-29T05:11:31.388Z,18.67
2022-11-29T05:14:40.299Z,18.42
2022-11-29T05:17:17.382Z,13.93
2022-11-29T05:20:00.041Z,13.63
2022-11-29T05:22:54.474Z,13.30
2022-11-29T05:25:37.218Z,12.80
2022-11-29T05:28:09.814Z,14.68
2022-11-29T05:31:08.948Z,15.40
2022-11-29T05:34:01.154Z,14.27
2022-11-29T05:36:54.799Z,15.30
2022-11-29T05:39:28.197Z,12.70
2022-11-29T05:42:23.417Z,12.48
2022-11-29T05:44:58.050Z,12.07
2022-11-29T05:47:35.686Z,12.27
2022-11-29T05:50:28.396Z,12.63
2022-11-29T05:53:28.391Z,14.50
2022-11-29T05:56:06.258Z,14.00
2022-11-29T05:58:51.209Z,15.02
2022-11-29T06:01:25.768Z,13.65
2022-11-29T06:04:20.597Z,13.75
2022-11-29T06:06:53.596Z,14.40
2022-11-29T06:10:11.799Z,14.88
2022-11-29T06:12:39.413Z,13.30
2022-11-29T06:15:31.292Z,15.07
2022-11-29T06:18:01.601Z,17.83
2022-11-29T06:20:50.800Z,15.20
2022-11-29T06:23:42.795Z,13.82
2022-11-29T06:26:19.889Z,14.65
2022-11-29T06:29:04.011Z,13.60
2022-11-29T06:31:40.562Z,14.75
2022-11-29T06:34:11.513Z,15.00
2022-11-29T06:37:02.856Z,14.50
2022-11-29T06:39:30.633Z,15.63
2022-11-29T06:41:58.324Z,13.30
2022-11-29T06:44:26.113Z,13.90
2022-11-29T06:47:10.943Z,15.37
2022-11-29T06:49:48.532Z,13.45
2022-11-29T06:52:48.801Z,17.20
2022-11-29T06:55:43.068Z,15.82
2022-11-29T06:58:25.512Z,14.18
2022-11-29T07:00:59.907Z,16.87
2022-11-29T07:03:58.183Z,14.10
2022-11-29T07:06:28.182Z,15.20
2022-11-29T07:09:18.483Z,14.13
2022-11-29T07:11:47.188Z,17.48
2022-11-29T07:14:15.387Z,17.53
2022-11-29T07:17:04.183Z,19.52
2022-11-29T07:20:01.303Z,14.88
2022-11-29T07:22:57.410Z,19.30
2022-11-29T07:26:11.189Z,17.10
2022-11-29T07:29:07.179Z,17.13
2022-11-29T07:31:56.762Z,14.45
2022-11-29T07:34:38.178Z,12.73
2022-11-29T07:37:21.557Z,15.30
2022-11-29T07:40:07.137Z,13.65
2022-11-29T07:43:08.576Z,22.57
2022-11-29T07:45:39.103Z,36.75
2022-11-29T07:48:07.314Z,15.40
2022-11-29T07:50:36.145Z,16.27
2022-11-29T07:53:04.056Z,14.77
2022-11-29T07:55:34.083Z,50.20
2022-11-29T07:58:01.878Z,44.38
2022-11-29T08:00:29.531Z,32.42
2022-11-29T08:02:56.946Z,37.15
2022-11-29T08:05:24.399Z,38.25
2022-11-29T08:07:52.092Z,46.77
2022-11-29T08:10:19.615Z,43.08
2022-11-29T08:12:53.171Z,46.92
2022-11-29T08:15:22.828Z,38.22
2022-11-29T08:17:51.041Z,46.75
2022-11-29T08:20:18.567Z,37.27
2022-11-29T08:22:45.949Z,45.15
2022-11-29T08:25:13.347Z,42.58
2022-11-29T08:27:40.806Z,47.03
2022-11-29T08:30:09.235Z,49.78
2022-11-29T08:32:37.073Z,45.37
2022-11-29T08:35:04.574Z,36.97
2022-11-29T08:37:31.895Z,50.60
2022-11-29T08:39:59.317Z,27.92
2022-11-29T08:42:26.746Z,33.17
2022-11-29T08:44:54.050Z,35.60
2022-11-29T08:47:36.603Z,30.60
2022-11-29T08:50:14.943Z,17.27
2022-11-29T08:53:03.513Z,13.25
2022-11-29T08:55:37.125Z,33.80
2022-11-29T08:58:09.425Z,19.53
2022-11-29T09:00:37.745Z,39.63
2022-11-29T09:03:25.904Z,102.35
2022-11-29T09:05:53.894Z,59.70
2022-11-29T09:08:21.436Z,55.10
2022-11-29T09:10:49.051Z,43.93
2022-11-29T09:13:16.443Z,18.85
2022-11-29T09:15:43.924Z,14.30
2022-11-29T09:18:11.687Z,16.35
2022-11-29T09:20:42.469Z,15.43
2022-11-29T09:23:10.971Z,15.20
2022-11-29T09:25:38.269Z,20.40
2022-11-29T09:28:06.050Z,17.95
2022-11-29T09:30:35.656Z,22.55
2022-11-29T09:33:04.258Z,24.23
2022-11-29T09:35:33.577Z,12.30
2022-11-29T09:38:01.406Z,13.23
2022-11-29T09:40:37.693Z,14.00
2022-11-29T09:43:27.210Z,14.05
2022-11-29T09:46:02.007Z,12.60
2022-11-29T09:48:44.521Z,13.67
2022-11-29T09:51:20.402Z,29.95
2022-11-29T09:54:00.082Z,38.10
2022-11-29T09:56:44.886Z,16.95
2022-11-29T09:59:23.697Z,26.23
2022-11-29T10:02:00.410Z,43.00
2022-11-29T10:04:32.776Z,59.20
2022-11-29T10:07:21.841Z,38.25
2022-11-29T10:09:55.150Z,35.08
2022-11-29T10:12:36.459Z,45.47
2022-11-29T10:15:36.666Z,28.37
2022-11-29T10:18:14.269Z,17.50
2022-11-29T10:20:48.931Z,17.17
2022-11-29T10:23:21.736Z,14.63
2022-11-29T10:25:52.643Z,11.43
2022-11-29T10:28:24.265Z,24.77
2022-11-29T10:30:55.214Z,20.38
2022-11-29T10:33:28.883Z,13.05
2022-11-29T10:36:07.671Z,14.35
2022-11-29T10:38:35.043Z,13.90
2022-11-29T10:41:10.241Z,13.40
2022-11-29T10:43:38.746Z,15.63
2022-11-29T10:46:22.644Z,14.18
2022-11-29T10:48:50.100Z,13.93
2022-11-29T10:51:18.817Z,14.45
2022-11-29T10:53:47.157Z,19.67
2022-11-29T10:56:24.616Z,15.77
2022-11-29T10:58:57.349Z,21.95
2022-11-29T11:01:26.738Z,21.67
2022-11-29T11:03:55.914Z,27.02
2022-11-29T11:06:43.494Z,17.57
2022-11-29T11:09:42.669Z,20.00
2022-11-29T11:12:16.462Z,41.70
2022-11-29T11:14:45.557Z,22.05
2022-11-29T11:17:30.420Z,25.27
2022-11-29T11:20:01.171Z,17.23
2022-11-29T11:22:30.275Z,16.02
2022-11-29T11:25:19.555Z,18.10
2022-11-29T11:27:47.504Z,30.48
2022-11-29T11:30:24.160Z,32.25
2022-11-29T11:33:33.135Z,43.73
2022-11-29T11:36:07.595Z,45.33
2022-11-29T11:38:38.037Z,31.58
2022-11-29T11:41:15.343Z,42.25
2022-11-29T11:43:49.567Z,53.97
2022-11-29T11:46:18.288Z,47.17
2022-11-29T11:48:47.007Z,55.20
2022-11-29T11:51:25.164Z,49.30
2022-11-29T11:53:56.915Z,56.28
2022-11-29T11:56:26.475Z,38.90
2022-11-29T11:58:57.652Z,58.10
2022-11-29T12:01:36.697Z,59.95
2022-11-29T12:04:27.714Z,54.58
2022-11-29T12:07:44.995Z,53.15
2022-11-29T12:10:26.715Z,49.55
2022-11-29T12:12:56.284Z,53.47
2022-11-29T12:15:29.984Z,57.15
2022-11-29T12:18:10.519Z,62.90
2022-11-29T12:20:47.177Z,54.55
2022-11-29T12:23:14.771Z,43.50
2022-11-29T12:25:57.297Z,59.70
2022-11-29T12:28:34.563Z,37.55
2022-11-29T12:31:26.337Z,41.00
2022-11-29T12:34:19.634Z,35.88
2022-11-29T12:36:55.739Z,59.67
2022-11-29T12:40:00.353Z,53.23
2022-11-29T12:42:39.772Z,22.30
2022-11-29T12:45:40.837Z,20.85
2022-11-29T12:48:30.001Z,19.83
2022-11-29T12:51:12.278Z,20.38
2022-11-29T12:53:39.594Z,22.87
2022-11-29T12:56:18.624Z,31.63
2022-11-29T12:59:20.742Z,33.05
2022-11-29T13:01:48.421Z,23.60
2022-11-29T13:04:30.176Z,21.95
2022-11-29T13:07:03.744Z,25.57
2022-11-29T13:09:49.466Z,20.92
2022-11-29T13:12:41.614Z,20.65
2022-11-29T13:15:17.621Z,19.17
2022-11-29T13:18:20.256Z,37.10
2022-11-29T13:21:08.302Z,46.80
2022-11-29T13:24:09.064Z,33.05
2022-11-29T13:26:39.478Z,39.05
2022-11-29T13:29:12.995Z,31.77
2022-11-29T13:31:41.343Z,30.25
2022-11-29T13:34:35.490Z,37.70
2022-11-29T13:37:16.718Z,31.35
2022-11-29T13:40:19.949Z,25.00
2022-11-29T13:42:57.380Z,18.95
2022-11-29T13:45:45.213Z,18.15
2022-11-29T13:48:49.608Z,16.37
2022-11-29T13:51:27.354Z,21.65
2022-11-29T13:54:02.575Z,21.63
2022-11-29T13:56:33.782Z,22.58
2022-11-29T13:59:06.894Z,31.48
2022-11-29T14:01:49.119Z,48.47
2022-11-29T14:04:44.880Z,51.80
2022-11-29T14:07:19.889Z,45.90
2022-11-29T14:10:04.067Z,48.33
2022-11-29T14:12:49.388Z,43.08
2022-11-29T14:15:34.589Z,21.23
2022-11-29T14:18:08.552Z,22.13
2022-11-29T14:20:45.777Z,27.90
2022-11-29T14:23:13.354Z,29.83
2022-11-29T14:26:01.804Z,54.65
2022-11-29T14:28:39.387Z,27.63
2022-11-29T14:31:09.074Z,51.13
2022-11-29T14:34:04.839Z,59.80
2022-11-29T14:36:57.090Z,55.08
2022-11-29T14:39:33.905Z,50.15
2022-11-29T14:42:17.169Z,57.37
2022-11-29T14:44:46.427Z,57.28
2022-11-29T14:47:21.728Z,56.08
2022-11-29T14:49:49.241Z,59.00
2022-11-29T14:52:18.879Z,51.65
2022-11-29T14:54:56.583Z,57.37
2022-11-29T14:58:01.505Z,54.53
2022-11-29T15:00:49.085Z,56.83
2022-11-29T15:03:16.373Z,54.58
2022-11-29T15:05:58.780Z,30.83
2022-11-29T15:08:32.773Z,36.60
2022-11-29T15:11:31.987Z,28.55
2022-11-29T15:14:12.807Z,24.85
2022-11-29T15:16:49.207Z,26.40
2022-11-29T15:19:36.411Z,29.23
2022-11-29T15:22:20.298Z,18.93
2022-11-29T15:25:03.297Z,28.00
2022-11-29T15:27:30.972Z,26.70
2022-11-29T15:30:00.159Z,38.05
2022-11-29T15:32:32.937Z,42.58
2022-11-29T15:35:01.190Z,48.97
2022-11-29T15:37:34.537Z,46.85
2022-11-29T15:40:17.463Z,45.70
2022-11-29T15:42:50.939Z,49.53
2022-11-29T15:45:29.583Z,51.03
2022-11-29T15:48:20.728Z,48.03
2022-11-29T15:51:04.899Z,50.63
2022-11-29T15:53:37.694Z,45.42
2022-11-29T15:56:13.255Z,51.72
2022-11-29T15:58:41.233Z,52.33
2022-11-29T16:01:09.406Z,51.37
2022-11-29T16:03:41.431Z,53.75
2022-11-29T16:06:40.970Z,45.55
2022-11-29T16:09:25.481Z,51.50
2022-11-29T16:11:53.636Z,55.53
2022-11-29T16:14:29.728Z,57.53
2022-11-29T16:17:01.855Z,56.95
2022-11-29T16:19:29.141Z,61.45
2022-11-29T16:22:29.407Z,60.25
2022-11-29T16:25:06.264Z,51.25
2022-11-29T16:27:36.176Z,32.67
2022-11-29T16:30:04.481Z,18.13
2022-11-29T16:32:35.788Z,20.27
2022-11-29T16:35:21.239Z,27.70
2022-11-29T16:37:49.276Z,30.77
2022-11-29T16:40:34.051Z,48.30
2022-11-29T16:43:05.034Z,54.15
2022-11-29T16:45:39.257Z,50.63
2022-11-29T16:48:38.669Z,50.88
2022-11-29T16:51:14.622Z,43.97
2022-11-29T16:53:48.660Z,20.33
2022-11-29T16:56:22.602Z,46.80
2022-11-29T16:59:24.985Z,52.13
2022-11-29T17:01:51.022Z,56.58
2022-11-29T17:04:24.273Z,45.60
2022-11-29T17:06:56.638Z,55.90
2022-11-29T17:09:30.757Z,53.25
2022-11-29T17:12:01.368Z,29.92
2022-11-29T17:14:29.854Z,26.80
2022-11-29T17:16:57.662Z,45.75
2022-11-29T17:19:25.375Z,57.97
2022-11-29T17:21:53.563Z,41.15
2022-11-29T17:24:23.097Z,28.73
2022-11-29T17:26:50.990Z,51.35
2022-11-29T17:29:18.977Z,37.25
2022-11-29T17:31:47.256Z,33.87
2022-11-29T17:34:14.837Z,30.10
2022-11-29T17:36:42.435Z,21.58
2022-11-29T17:39:10.397Z,42.00
2022-11-29T17:41:38.254Z,51.88
2022-11-29T17:44:05.930Z,50.13
2022-11-29T17:46:36.133Z,45.50
2022-11-29T17:49:06.387Z,51.42
2022-11-29T17:51:52.090Z,32.95
2022-11-29T17:54:21.221Z,51.00
2022-11-29T17:56:48.798Z,49.73
2022-11-29T17:59:16.406Z,34.92
2022-11-29T18:01:43.943Z,38.28
2022-11-29T18:04:11.572Z,29.88
2022-11-29T18:06:41.162Z,23.92
2022-11-29T18:09:10.361Z,21.83
2022-11-29T18:11:48.564Z,23.17
2022-11-29T18:14:24.206Z,22.20
2022-11-29T18:16:52.328Z,21.75
2022-11-29T18:19:22.270Z,20.55
2022-11-29T18:21:50.885Z,20.37
2022-11-29T18:24:18.458Z,20.80
2022-11-29T18:26:46.312Z,20.73
2022-11-29T18:29:14.186Z,21.30
2022-11-29T18:31:44.334Z,24.48
2022-11-29T18:34:13.884Z,20.00
2022-11-29T18:36:44.319Z,21.77
2022-11-29T18:39:17.236Z,25.33
2022-11-29T18:41:46.825Z,25.13
2022-11-29T18:44:16.354Z,23.05
2022-11-29T18:46:45.176Z,26.50
2022-11-29T18:49:15.232Z,25.92
2022-11-29T18:51:45.384Z,21.60
2022-11-29T18:54:17.476Z,24.38
2022-11-29T18:56:46.409Z,23.27
2022-11-29T18:59:17.364Z,23.53
2022-11-29T19:01:46.859Z,25.20
2022-11-29T19:04:19.047Z,27.08
2022-11-29T19:06:47.336Z,25.63
2022-11-29T19:09:21.500Z,27.13
2022-11-29T19:11:50.128Z,23.87
2022-11-29T19:14:18.174Z,27.83
2022-11-29T19:16:47.381Z,43.40
2022-11-29T19:19:14.945Z,42.05
2022-11-29T19:21:42.525Z,31.02
2022-11-29T19:24:20.768Z,34.27
2022-11-29T19:26:55.699Z,25.58
2022-11-29T19:29:23.451Z,25.75
2022-11-29T19:31:50.884Z,25.40
2022-11-29T19:34:18.376Z,29.15
2022-11-29T19:36:45.913Z,24.50
2022-11-29T19:39:15.555Z,29.27
2022-11-29T19:41:45.130Z,31.13
2022-11-29T19:48:00.311Z,30.38
2022-11-29T19:50:27.638Z,32.23
2022-11-29T19:52:55.017Z,35.85
2022-11-29T19:55:22.337Z,31.45
2022-11-29T19:57:50.008Z,26.35
2022-11-29T20:00:20.462Z,26.65
2022-11-29T20:02:47.995Z,29.73
2022-11-29T20:05:15.779Z,26.55
2022-11-29T20:07:43.196Z,28.38
2022-11-29T20:10:10.795Z,26.10
2022-11-29T20:13:03.309Z,27.95
2022-11-29T20:15:31.632Z,30.83
2022-11-29T20:17:59.115Z,27.63
2022-11-29T20:20:26.833Z,28.95
2022-11-29T20:22:54.218Z,34.15
2022-11-29T20:25:22.085Z,59.88
2022-11-29T20:27:51.544Z,47.13
2022-11-29T20:30:19.200Z,55.78
2022-11-29T20:32:46.537Z,36.75
2022-11-29T20:35:14.386Z,33.17
2022-11-29T20:38:00.045Z,26.58
2022-11-29T20:40:42.102Z,23.57
2022-11-29T20:43:22.535Z,21.27
2022-11-29T20:45:50.287Z,22.45
2022-11-29T20:48:21.350Z,20.98
2022-11-29T20:51:01.065Z,23.75
2022-11-29T20:53:35.132Z,25.03
2022-11-29T20:56:03.544Z,27.23
2022-11-29T20:58:30.892Z,25.70
2022-11-29T21:00:58.897Z,26.20
2022-11-29T21:03:27.220Z,28.00
2022-11-29T21:05:56.199Z,25.80
2022-11-29T21:08:26.789Z,25.80
2022-11-29T21:10:55.245Z,28.15
2022-11-29T21:13:23.513Z,28.88
2022-11-29T21:15:51.460Z,31.40
2022-11-29T21:18:24.858Z,25.37
2022-11-29T21:21:16.513Z,30.02
2022-11-29T21:23:43.761Z,30.02
2022-11-29T21:26:16.756Z,34.13
2022-11-29T21:28:57.385Z,32.95
2022-11-29T21:31:25.076Z,33.60
2022-11-29T21:33:53.046Z,35.08
2022-11-29T21:36:20.613Z,29.55
2022-11-29T21:38:53.898Z,29.83
2022-11-29T21:41:22.477Z,30.10
2022-11-29T21:44:05.933Z,28.90
2022-11-29T21:46:34.306Z,28.02
2022-11-29T21:49:02.207Z,26.10
2022-11-29T21:51:29.683Z,28.40
2022-11-29T21:53:56.988Z,30.00
2022-11-29T21:56:24.350Z,29.67
2022-11-29T21:58:51.604Z,27.52
2022-11-29T22:01:20.372Z,24.52
2022-11-29T22:03:48.107Z,24.00
2022-11-29T22:06:21.845Z,23.00
2022-11-29T22:08:49.994Z,20.83
2022-11-29T22:11:34.537Z,18.27
2022-11-29T22:14:18.602Z,18.45
2022-11-29T22:16:55.876Z,20.40
2022-11-29T22:19:25.043Z,19.02
2022-11-29T22:22:00.974Z,17.67
2022-11-29T22:24:36.522Z,16.83
2022-11-29T22:27:04.196Z,15.15
2022-11-29T22:29:32.070Z,15.43
2022-11-29T22:31:59.804Z,13.63
2022-11-29T22:34:28.231Z,15.50
2022-11-29T22:36:56.023Z,13.57
2022-11-29T22:39:24.385Z,11.95
2022-11-29T22:41:54.634Z,12.65
2022-11-29T22:44:23.926Z,12.10
2022-11-29T22:46:51.983Z,16.93
2022-11-29T22:49:19.526Z,12.65
2022-11-29T22:51:47.600Z,12.77
2022-11-29T22:54:18.169Z,14.23
2022-11-29T22:56:46.089Z,15.10
2022-11-29T22:59:13.854Z,14.60
2022-11-29T23:01:42.270Z,14.35
2022-11-29T23:04:11.257Z,14.90
2022-11-29T23:06:46.164Z,13.43
2022-11-29T23:09:21.544Z,12.52
2022-11-29T23:11:54.205Z,13.40
2022-11-29T23:14:22.448Z,13.63
2022-11-29T23:16:49.810Z,13.73
2022-11-29T23:19:17.701Z,15.25
2022-11-29T23:21:46.032Z,12.00
2022-11-29T23:24:14.820Z,14.07
2022-11-29T23:26:45.870Z,13.23
2022-11-29T23:29:18.900Z,14.52
2022-11-29T23:31:47.031Z,14.35
2022-11-29T23:34:14.773Z,14.68
2022-11-29T23:36:43.332Z,13.37
2022-11-29T23:39:12.018Z,12.23
2022-11-29T23:41:39.294Z,13.07
2022-11-29T23:44:09.066Z,13.43
2022-11-29T23:46:36.678Z,11.95
2022-11-29T23:49:04.393Z,14.30
2022-11-29T23:51:31.821Z,13.07
2022-11-29T23:53:59.282Z,13.77
2022-11-29T23:56:26.835Z,15.93
2022-11-29T23:58:54.511Z,14.80
